sensor_id;sensor_type;location;lat;lon;timestamp;pressure;altitude;pressure_sealevel;temperature;humidity
68793;BME280;55778;54.346;10.210;2023-12-20T00:01:19;100428.25;;;4.81;100.00
68793;BME280;55778;54.346;10.210;2023-12-20T00:03:44;100426.91;;;4.87;100.00
68793;BME280;55778;54.346;10.210;2023-12-20T00:06:10;100419.34;;;4.92;100.00
68793;BME280;55778;54.346;10.210;2023-12-20T00:08:35;100420.16;;;4.81;100.00
68793;BME280;55778;54.346;10.210;2023-12-20T00:11:01;100416.13;;;4.87;100.00
68793;BME280;55778;54.346;10.210;2023-12-20T00:13:26;100410.81;;;4.74;100.00
68793;BME280;55778;54.346;10.210;2023-12-20T00:15:51;100401.84;;;4.74;100.00
68793;BME280;55778;54.346;10.210;2023-12-20T00:18:17;100402.50;;;4.88;100.00
68793;BME280;55778;54.346;10.210;2023-12-20T00:20:42;100401.44;;;4.91;100.00
68793;BME280;55778;54.346;10.210;2023-12-20T00:23:07;100399.81;;;4.88;100.00
68793;BME280;55778;54.346;10.210;2023-12-20T00:25:34;100399.44;;;4.82;100.00
68793;BME280;55778;54.346;10.210;2023-12-20T00:28:00;100388.53;;;4.83;100.00
68793;BME280;55778;54.346;10.210;2023-12-20T00:30:25;100392.06;;;4.84;100.00
68793;BME280;55778;54.346;10.210;2023-12-20T00:32:50;100388.78;;;4.91;100.00
68793;BME280;55778;54.346;10.210;2023-12-20T00:35:16;100391.75;;;4.99;100.00
68793;BME280;55778;54.346;10.210;2023-12-20T00:37:43;100387.09;;;5.12;100.00
68793;BME280;55778;54.346;10.210;2023-12-20T00:40:09;100389.06;;;5.21;100.00
68793;BME280;55778;54.346;10.210;2023-12-20T00:42:35;100390.56;;;5.36;100.00
68793;BME280;55778;54.346;10.210;2023-12-20T00:45:03;100380.25;;;5.52;100.00
68793;BME280;55778;54.346;10.210;2023-12-20T00:47:30;100382.94;;;5.52;100.00
68793;BME280;55778;54.346;10.210;2023-12-20T00:49:56;100381.72;;;5.45;100.00
68793;BME280;55778;54.346;10.210;2023-12-20T00:52:21;100369.22;;;5.44;100.00
68793;BME280;55778;54.346;10.210;2023-12-20T00:54:48;100362.44;;;5.28;100.00
68793;BME280;55778;54.346;10.210;2023-12-20T00:57:13;100365.50;;;5.34;100.00
68793;BME280;55778;54.346;10.210;2023-12-20T00:59:39;100369.66;;;5.16;100.00
68793;BME280;55778;54.346;10.210;2023-12-20T01:02:04;100362.91;;;5.11;100.00
68793;BME280;55778;54.346;10.210;2023-12-20T01:04:30;100363.53;;;5.25;100.00
68793;BME280;55778;54.346;10.210;2023-12-20T01:06:55;100361.19;;;5.10;100.00
68793;BME280;55778;54.346;10.210;2023-12-20T01:09:20;100360.22;;;5.11;100.00
68793;BME280;55778;54.346;10.210;2023-12-20T01:11:49;100361.19;;;5.10;100.00
68793;BME280;55778;54.346;10.210;2023-12-20T01:14:14;100358.88;;;5.05;100.00
68793;BME280;55778;54.346;10.210;2023-12-20T01:16:40;100369.66;;;5.05;100.00
68793;BME280;55778;54.346;10.210;2023-12-20T01:19:05;100367.34;;;5.12;100.00
68793;BME280;55778;54.346;10.210;2023-12-20T01:21:30;100352.13;;;5.22;100.00
68793;BME280;55778;54.346;10.210;2023-12-20T01:23:56;100347.22;;;5.16;100.00
68793;BME280;55778;54.346;10.210;2023-12-20T01:26:21;100337.38;;;5.26;100.00
68793;BME280;55778;54.346;10.210;2023-12-20T01:28:46;100345.38;;;5.27;100.00
68793;BME280;55778;54.346;10.210;2023-12-20T01:31:12;100346.09;;;5.18;100.00
68793;BME280;55778;54.346;10.210;2023-12-20T01:33:37;100346.47;;;5.36;100.00
68793;BME280;55778;54.346;10.210;2023-12-20T01:36:03;100341.94;;;5.14;100.00
68793;BME280;55778;54.346;10.210;2023-12-20T01:38:29;100340.94;;;5.15;100.00
68793;BME280;55778;54.346;10.210;2023-12-20T01:40:54;100347.69;;;5.10;100.00
68793;BME280;55778;54.346;10.210;2023-12-20T01:43:20;100353.09;;;5.21;100.00
68793;BME280;55778;54.346;10.210;2023-12-20T01:45:46;100342.28;;;5.10;100.00
68793;BME280;55778;54.346;10.210;2023-12-20T01:48:12;100324.38;;;5.09;100.00
68793;BME280;55778;54.346;10.210;2023-12-20T01:50:39;100329.78;;;5.20;100.00
68793;BME280;55778;54.346;10.210;2023-12-20T01:53:07;100316.03;;;5.34;100.00
68793;BME280;55778;54.346;10.210;2023-12-20T01:55:35;100328.91;;;5.19;100.00
68793;BME280;55778;54.346;10.210;2023-12-20T01:58:02;100318.22;;;5.18;100.00
68793;BME280;55778;54.346;10.210;2023-12-20T02:00:28;100324.63;;;5.17;100.00
68793;BME280;55778;54.346;10.210;2023-12-20T02:02:54;100311.34;;;5.14;100.00
68793;BME280;55778;54.346;10.210;2023-12-20T02:05:21;100311.38;;;5.25;100.00
68793;BME280;55778;54.346;10.210;2023-12-20T02:07:47;100314.31;;;5.11;100.00
68793;BME280;55778;54.346;10.210;2023-12-20T02:10:13;100309.38;;;5.05;100.00
68793;BME280;55778;54.346;10.210;2023-12-20T02:12:38;100308.19;;;5.09;100.00
68793;BME280;55778;54.346;10.210;2023-12-20T02:15:04;100301.53;;;5.13;100.00
68793;BME280;55778;54.346;10.210;2023-12-20T02:17:31;100296.25;;;5.22;100.00
68793;BME280;55778;54.346;10.210;2023-12-20T02:19:56;100296.50;;;5.08;100.00
68793;BME280;55778;54.346;10.210;2023-12-20T02:22:22;100287.91;;;5.14;100.00
68793;BME280;55778;54.346;10.210;2023-12-20T02:24:47;100285.22;;;5.14;100.00
68793;BME280;55778;54.346;10.210;2023-12-20T02:27:13;100280.66;;;5.26;100.00
68793;BME280;55778;54.346;10.210;2023-12-20T02:29:39;100292.47;;;5.25;100.00
68793;BME280;55778;54.346;10.210;2023-12-20T02:32:05;100279.31;;;5.31;100.00
68793;BME280;55778;54.346;10.210;2023-12-20T02:34:30;100262.84;;;5.34;100.00
68793;BME280;55778;54.346;10.210;2023-12-20T02:36:56;100257.94;;;5.28;100.00
68793;BME280;55778;54.346;10.210;2023-12-20T02:39:22;100265.66;;;5.44;100.00
68793;BME280;55778;54.346;10.210;2023-12-20T02:41:48;100259.19;;;5.35;100.00
68793;BME280;55778;54.346;10.210;2023-12-20T02:44:13;100253.03;;;5.44;100.00
68793;BME280;55778;54.346;10.210;2023-12-20T02:46:39;100258.56;;;5.43;100.00
68793;BME280;55778;54.346;10.210;2023-12-20T02:49:05;100256.56;;;5.45;100.00
68793;BME280;55778;54.346;10.210;2023-12-20T02:51:30;100261.13;;;5.44;100.00
68793;BME280;55778;54.346;10.210;2023-12-20T02:53:56;100247.13;;;5.39;100.00
68793;BME280;55778;54.346;10.210;2023-12-20T02:56:21;100229.47;;;5.35;100.00
68793;BME280;55778;54.346;10.210;2023-12-20T02:58:47;100226.25;;;5.30;100.00
68793;BME280;55778;54.346;10.210;2023-12-20T03:01:12;100214.84;;;5.38;100.00
68793;BME280;55778;54.346;10.210;2023-12-20T03:03:37;100210.44;;;5.37;100.00
68793;BME280;55778;54.346;10.210;2023-12-20T03:06:03;100198.75;;;5.36;100.00
68793;BME280;55778;54.346;10.210;2023-12-20T03:08:28;100203.53;;;5.33;100.00
68793;BME280;55778;54.346;10.210;2023-12-20T03:10:53;100201.72;;;5.22;100.00
68793;BME280;55778;54.346;10.210;2023-12-20T03:13:19;100191.41;;;5.27;100.00
68793;BME280;55778;54.346;10.210;2023-12-20T03:15:45;100191.53;;;5.26;100.00
68793;BME280;55778;54.346;10.210;2023-12-20T03:18:11;100199.13;;;5.21;100.00
68793;BME280;55778;54.346;10.210;2023-12-20T03:20:36;100200.38;;;5.17;100.00
68793;BME280;55778;54.346;10.210;2023-12-20T03:23:01;100190.66;;;5.25;100.00
68793;BME280;55778;54.346;10.210;2023-12-20T03:25:27;100187.81;;;5.38;100.00
68793;BME280;55778;54.346;10.210;2023-12-20T03:27:52;100184.88;;;5.41;100.00
68793;BME280;55778;54.346;10.210;2023-12-20T03:30:18;100182.91;;;5.43;100.00
68793;BME280;55778;54.346;10.210;2023-12-20T03:32:44;100183.22;;;5.49;100.00
68793;BME280;55778;54.346;10.210;2023-12-20T03:35:09;100183.84;;;5.53;100.00
68793;BME280;55778;54.346;10.210;2023-12-20T03:37:35;100183.34;;;5.59;100.00
68793;BME280;55778;54.346;10.210;2023-12-20T03:40:01;100184.16;;;5.59;100.00
68793;BME280;55778;54.346;10.210;2023-12-20T03:42:26;100183.06;;;5.62;100.00
68793;BME280;55778;54.346;10.210;2023-12-20T03:44:52;100161.50;;;5.71;100.00
68793;BME280;55778;54.346;10.210;2023-12-20T03:47:17;100176.03;;;5.70;100.00
68793;BME280;55778;54.346;10.210;2023-12-20T03:49:42;100175.91;;;5.72;100.00
68793;BME280;55778;54.346;10.210;2023-12-20T03:52:08;100159.91;;;5.80;100.00
68793;BME280;55778;54.346;10.210;2023-12-20T03:54:34;100153.00;;;5.76;100.00
68793;BME280;55778;54.346;10.210;2023-12-20T03:57:00;100144.53;;;5.80;100.00
68793;BME280;55778;54.346;10.210;2023-12-20T03:59:25;100146.16;;;5.72;100.00
68793;BME280;55778;54.346;10.210;2023-12-20T04:01:51;100140.03;;;5.70;100.00
68793;BME280;55778;54.346;10.210;2023-12-20T04:04:16;100133.84;;;5.79;100.00
68793;BME280;55778;54.346;10.210;2023-12-20T04:06:41;100129.09;;;5.71;100.00
68793;BME280;55778;54.346;10.210;2023-12-20T04:09:07;100122.00;;;5.59;100.00
68793;BME280;55778;54.346;10.210;2023-12-20T04:11:34;100138.19;;;5.70;100.00
68793;BME280;55778;54.346;10.210;2023-12-20T04:14:00;100125.97;;;5.76;100.00
68793;BME280;55778;54.346;10.210;2023-12-20T04:16:26;100121.31;;;5.57;100.00
68793;BME280;55778;54.346;10.210;2023-12-20T04:18:51;100121.56;;;5.54;100.00
68793;BME280;55778;54.346;10.210;2023-12-20T04:21:17;100136.47;;;5.49;100.00
68793;BME280;55778;54.346;10.210;2023-12-20T04:23:43;100124.53;;;5.72;100.00
68793;BME280;55778;54.346;10.210;2023-12-20T04:26:08;100126.09;;;5.54;100.00
68793;BME280;55778;54.346;10.210;2023-12-20T04:28:34;100132.94;;;5.58;100.00
68793;BME280;55778;54.346;10.210;2023-12-20T04:30:59;100121.31;;;5.57;100.00
68793;BME280;55778;54.346;10.210;2023-12-20T04:33:24;100130.34;;;5.67;100.00
68793;BME280;55778;54.346;10.210;2023-12-20T04:35:50;100117.81;;;5.66;100.00
68793;BME280;55778;54.346;10.210;2023-12-20T04:38:15;100115.94;;;5.67;100.00
68793;BME280;55778;54.346;10.210;2023-12-20T04:40:40;100108.63;;;5.58;100.00
68793;BME280;55778;54.346;10.210;2023-12-20T04:43:07;100115.41;;;5.52;100.00
68793;BME280;55778;54.346;10.210;2023-12-20T04:45:32;100105.25;;;5.45;100.00
68793;BME280;55778;54.346;10.210;2023-12-20T04:47:58;100109.22;;;5.41;100.00
68793;BME280;55778;54.346;10.210;2023-12-20T04:50:23;100107.94;;;5.56;100.00
68793;BME280;55778;54.346;10.210;2023-12-20T04:52:49;100095.94;;;5.49;100.00
68793;BME280;55778;54.346;10.210;2023-12-20T04:55:14;100093.53;;;5.55;100.00
68793;BME280;55778;54.346;10.210;2023-12-20T04:57:39;100094.06;;;5.49;100.00
68793;BME280;55778;54.346;10.210;2023-12-20T05:00:05;100084.63;;;5.44;100.00
68793;BME280;55778;54.346;10.210;2023-12-20T05:02:33;100090.22;;;5.31;100.00
68793;BME280;55778;54.346;10.210;2023-12-20T05:04:59;100094.28;;;5.26;100.00
68793;BME280;55778;54.346;10.210;2023-12-20T05:07:24;100088.47;;;5.41;100.00
68793;BME280;55778;54.346;10.210;2023-12-20T05:09:49;100081.69;;;5.47;100.00
68793;BME280;55778;54.346;10.210;2023-12-20T05:12:15;100079.97;;;5.46;100.00
68793;BME280;55778;54.346;10.210;2023-12-20T05:14:40;100084.44;;;5.56;100.00
68793;BME280;55778;54.346;10.210;2023-12-20T05:17:05;100085.13;;;5.49;100.00
68793;BME280;55778;54.346;10.210;2023-12-20T05:19:31;100074.88;;;5.52;100.00
68793;BME280;55778;54.346;10.210;2023-12-20T05:22:00;100069.22;;;5.55;100.00
68793;BME280;55778;54.346;10.210;2023-12-20T05:24:26;100065.94;;;5.72;100.00
68793;BME280;55778;54.346;10.210;2023-12-20T05:26:51;100074.44;;;5.47;100.00
68793;BME280;55778;54.346;10.210;2023-12-20T05:29:17;100063.53;;;5.38;100.00
68793;BME280;55778;54.346;10.210;2023-12-20T05:31:43;100067.03;;;5.49;100.00
68793;BME280;55778;54.346;10.210;2023-12-20T05:34:08;100052.53;;;5.50;100.00
68793;BME280;55778;54.346;10.210;2023-12-20T05:36:33;100065.66;;;5.55;100.00
68793;BME280;55778;54.346;10.210;2023-12-20T05:38:59;100071.06;;;5.55;100.00
68793;BME280;55778;54.346;10.210;2023-12-20T05:41:24;100053.78;;;5.67;100.00
68793;BME280;55778;54.346;10.210;2023-12-20T05:43:49;100041.75;;;5.71;100.00
68793;BME280;55778;54.346;10.210;2023-12-20T05:46:15;100048.22;;;5.59;100.00
68793;BME280;55778;54.346;10.210;2023-12-20T05:48:40;100033.34;;;5.53;100.00
68793;BME280;55778;54.346;10.210;2023-12-20T05:51:06;100029.16;;;5.60;100.00
68793;BME280;55778;54.346;10.210;2023-12-20T05:53:31;100038.63;;;5.55;100.00
68793;BME280;55778;54.346;10.210;2023-12-20T05:55:56;100031.72;;;5.62;100.00
68793;BME280;55778;54.346;10.210;2023-12-20T05:58:22;100020.66;;;5.65;100.00
68793;BME280;55778;54.346;10.210;2023-12-20T06:00:47;100024.31;;;5.64;100.00
68793;BME280;55778;54.346;10.210;2023-12-20T06:03:14;100030.06;;;5.70;100.00
68793;BME280;55778;54.346;10.210;2023-12-20T06:05:39;100027.44;;;5.80;100.00
68793;BME280;55778;54.346;10.210;2023-12-20T06:08:05;100016.81;;;5.88;100.00
68793;BME280;55778;54.346;10.210;2023-12-20T06:10:30;100014.25;;;5.86;100.00
68793;BME280;55778;54.346;10.210;2023-12-20T06:12:55;100004.31;;;5.87;100.00
68793;BME280;55778;54.346;10.210;2023-12-20T06:15:22;100012.72;;;5.93;100.00
68793;BME280;55778;54.346;10.210;2023-12-20T06:17:48;100003.63;;;5.94;100.00
68793;BME280;55778;54.346;10.210;2023-12-20T06:20:13;99998.16;;;5.85;100.00
68793;BME280;55778;54.346;10.210;2023-12-20T06:22:39;100006.22;;;5.75;100.00
68793;BME280;55778;54.346;10.210;2023-12-20T06:25:05;99997.75;;;5.69;100.00
68793;BME280;55778;54.346;10.210;2023-12-20T06:27:30;100010.94;;;5.62;100.00
68793;BME280;55778;54.346;10.210;2023-12-20T06:29:57;100007.66;;;5.59;100.00
68793;BME280;55778;54.346;10.210;2023-12-20T06:32:23;100008.63;;;5.58;100.00
68793;BME280;55778;54.346;10.210;2023-12-20T06:34:49;100004.91;;;5.49;100.00
68793;BME280;55778;54.346;10.210;2023-12-20T06:37:15;99996.22;;;5.46;100.00
68793;BME280;55778;54.346;10.210;2023-12-20T06:39:40;100004.06;;;5.49;100.00
68793;BME280;55778;54.346;10.210;2023-12-20T06:42:06;100015.84;;;5.27;100.00
68793;BME280;55778;54.346;10.210;2023-12-20T06:44:31;99998.47;;;5.09;100.00
68793;BME280;55778;54.346;10.210;2023-12-20T06:46:57;99993.59;;;5.03;100.00
68793;BME280;55778;54.346;10.210;2023-12-20T06:49:23;99998.28;;;5.01;100.00
68793;BME280;55778;54.346;10.210;2023-12-20T06:51:48;100003.84;;;4.89;100.00
68793;BME280;55778;54.346;10.210;2023-12-20T06:54:14;100007.19;;;4.81;100.00
68793;BME280;55778;54.346;10.210;2023-12-20T06:56:39;99994.72;;;4.69;100.00
68793;BME280;55778;54.346;10.210;2023-12-20T06:59:04;100002.09;;;4.67;100.00
68793;BME280;55778;54.346;10.210;2023-12-20T07:01:30;100006.25;;;4.71;100.00
68793;BME280;55778;54.346;10.210;2023-12-20T07:03:55;99998.78;;;4.75;100.00
68793;BME280;55778;54.346;10.210;2023-12-20T07:06:20;99996.53;;;4.80;100.00
68793;BME280;55778;54.346;10.210;2023-12-20T07:08:46;99993.25;;;4.76;100.00
68793;BME280;55778;54.346;10.210;2023-12-20T07:11:11;99983.03;;;4.80;100.00
68793;BME280;55778;54.346;10.210;2023-12-20T07:13:37;99977.59;;;4.91;100.00
68793;BME280;55778;54.346;10.210;2023-12-20T07:16:02;99972.59;;;4.86;100.00
68793;BME280;55778;54.346;10.210;2023-12-20T07:18:28;99968.75;;;4.89;100.00
68793;BME280;55778;54.346;10.210;2023-12-20T07:20:54;99975.34;;;4.96;100.00
68793;BME280;55778;54.346;10.210;2023-12-20T07:23:20;99967.25;;;4.96;100.00
68793;BME280;55778;54.346;10.210;2023-12-20T07:25:46;99971.56;;;4.98;100.00
68793;BME280;55778;54.346;10.210;2023-12-20T07:28:12;99962.34;;;5.01;100.00
68793;BME280;55778;54.346;10.210;2023-12-20T07:30:37;99955.09;;;5.01;100.00
68793;BME280;55778;54.346;10.210;2023-12-20T07:33:02;99951.78;;;4.98;100.00
68793;BME280;55778;54.346;10.210;2023-12-20T07:35:28;99949.69;;;5.01;100.00
68793;BME280;55778;54.346;10.210;2023-12-20T07:37:53;99957.28;;;5.07;100.00
68793;BME280;55778;54.346;10.210;2023-12-20T07:40:19;99943.03;;;5.05;100.00
68793;BME280;55778;54.346;10.210;2023-12-20T07:42:44;99937.50;;;5.07;100.00
68793;BME280;55778;54.346;10.210;2023-12-20T07:45:10;99930.97;;;5.09;100.00
68793;BME280;55778;54.346;10.210;2023-12-20T07:47:38;99927.75;;;5.15;100.00
68793;BME280;55778;54.346;10.210;2023-12-20T07:50:03;99935.00;;;5.15;100.00
68793;BME280;55778;54.346;10.210;2023-12-20T07:52:29;99926.44;;;5.10;100.00
68793;BME280;55778;54.346;10.210;2023-12-20T07:54:55;99916.94;;;5.15;100.00
68793;BME280;55778;54.346;10.210;2023-12-20T07:57:21;99917.81;;;5.36;100.00
68793;BME280;55778;54.346;10.210;2023-12-20T07:59:46;99903.97;;;5.30;100.00
68793;BME280;55778;54.346;10.210;2023-12-20T08:02:12;99891.53;;;5.38;100.00
68793;BME280;55778;54.346;10.210;2023-12-20T08:04:37;99893.28;;;5.49;100.00
68793;BME280;55778;54.346;10.210;2023-12-20T08:07:03;99895.66;;;5.72;100.00
68793;BME280;55778;54.346;10.210;2023-12-20T08:09:29;99908.78;;;5.56;100.00
68793;BME280;55778;54.346;10.210;2023-12-20T08:11:55;99904.13;;;5.58;100.00
68793;BME280;55778;54.346;10.210;2023-12-20T08:14:20;99894.56;;;5.54;100.00
68793;BME280;55778;54.346;10.210;2023-12-20T08:16:46;99897.56;;;5.61;100.00
68793;BME280;55778;54.346;10.210;2023-12-20T08:19:12;99878.53;;;5.62;100.00
68793;BME280;55778;54.346;10.210;2023-12-20T08:21:38;99884.03;;;5.51;100.00
68793;BME280;55778;54.346;10.210;2023-12-20T08:24:04;99875.31;;;5.38;100.00
68793;BME280;55778;54.346;10.210;2023-12-20T08:26:29;99870.44;;;5.32;100.00
68793;BME280;55778;54.346;10.210;2023-12-20T08:28:55;99857.78;;;5.33;100.00
68793;BME280;55778;54.346;10.210;2023-12-20T08:31:20;99873.97;;;5.33;100.00
68793;BME280;55778;54.346;10.210;2023-12-20T08:33:47;99884.75;;;5.23;100.00
68793;BME280;55778;54.346;10.210;2023-12-20T08:36:13;99883.00;;;5.22;100.00
68793;BME280;55778;54.346;10.210;2023-12-20T08:38:39;99893.25;;;5.19;100.00
68793;BME280;55778;54.346;10.210;2023-12-20T08:41:04;99898.06;;;5.15;100.00
68793;BME280;55778;54.346;10.210;2023-12-20T08:43:39;99902.06;;;5.00;100.00
68793;BME280;55778;54.346;10.210;2023-12-20T08:46:05;99887.66;;;4.90;100.00
68793;BME280;55778;54.346;10.210;2023-12-20T08:48:31;99894.09;;;4.78;100.00
68793;BME280;55778;54.346;10.210;2023-12-20T08:50:56;99880.19;;;4.62;100.00
68793;BME280;55778;54.346;10.210;2023-12-20T08:53:22;99876.84;;;4.49;100.00
68793;BME280;55778;54.346;10.210;2023-12-20T08:55:47;99870.97;;;4.44;100.00
68793;BME280;55778;54.346;10.210;2023-12-20T08:58:13;99865.81;;;4.41;100.00
68793;BME280;55778;54.346;10.210;2023-12-20T09:00:39;99875.75;;;4.41;100.00
68793;BME280;55778;54.346;10.210;2023-12-20T09:03:04;99876.16;;;4.36;100.00
68793;BME280;55778;54.346;10.210;2023-12-20T09:05:30;99893.31;;;4.35;100.00
68793;BME280;55778;54.346;10.210;2023-12-20T09:07:55;99890.84;;;4.32;100.00
68793;BME280;55778;54.346;10.210;2023-12-20T09:10:21;99898.69;;;4.35;100.00
68793;BME280;55778;54.346;10.210;2023-12-20T09:12:51;99898.81;;;4.34;100.00
68793;BME280;55778;54.346;10.210;2023-12-20T09:15:19;99894.78;;;4.39;100.00
68793;BME280;55778;54.346;10.210;2023-12-20T09:17:44;99902.50;;;4.33;100.00
68793;BME280;55778;54.346;10.210;2023-12-20T09:20:10;99903.63;;;4.30;100.00
68793;BME280;55778;54.346;10.210;2023-12-20T09:22:35;99916.00;;;4.33;100.00
68793;BME280;55778;54.346;10.210;2023-12-20T09:25:03;99927.41;;;4.36;100.00
68793;BME280;55778;54.346;10.210;2023-12-20T09:27:29;99932.81;;;4.25;100.00
68793;BME280;55778;54.346;10.210;2023-12-20T09:29:54;99935.25;;;4.28;100.00
68793;BME280;55778;54.346;10.210;2023-12-20T09:32:19;99934.06;;;4.21;100.00
68793;BME280;55778;54.346;10.210;2023-12-20T09:34:48;99940.41;;;4.20;100.00
68793;BME280;55778;54.346;10.210;2023-12-20T09:37:13;99936.50;;;4.24;100.00
68793;BME280;55778;54.346;10.210;2023-12-20T09:39:39;99947.75;;;4.29;100.00
68793;BME280;55778;54.346;10.210;2023-12-20T09:42:05;99945.44;;;4.25;100.00
68793;BME280;55778;54.346;10.210;2023-12-20T09:44:31;99949.31;;;4.43;100.00
68793;BME280;55778;54.346;10.210;2023-12-20T09:46:58;99954.56;;;4.55;100.00
68793;BME280;55778;54.346;10.210;2023-12-20T09:49:27;99954.44;;;4.46;100.00
68793;BME280;55778;54.346;10.210;2023-12-20T09:51:54;99955.06;;;4.38;100.00
68793;BME280;55778;54.346;10.210;2023-12-20T09:54:20;99963.69;;;4.32;100.00
68793;BME280;55778;54.346;10.210;2023-12-20T09:56:46;99954.63;;;4.22;100.00
68793;BME280;55778;54.346;10.210;2023-12-20T09:59:12;99957.94;;;4.26;100.00
68793;BME280;55778;54.346;10.210;2023-12-20T10:01:39;99957.06;;;4.36;100.00
68793;BME280;55778;54.346;10.210;2023-12-20T10:04:09;99938.44;;;4.33;100.00
68793;BME280;55778;54.346;10.210;2023-12-20T10:06:46;99948.56;;;4.83;100.00
68793;BME280;55778;54.346;10.210;2023-12-20T10:09:12;99937.69;;;5.15;100.00
68793;BME280;55778;54.346;10.210;2023-12-20T10:11:39;99927.97;;;5.23;100.00
68793;BME280;55778;54.346;10.210;2023-12-20T10:14:07;99929.31;;;5.18;100.00
68793;BME280;55778;54.346;10.210;2023-12-20T10:16:33;99944.81;;;4.95;100.00
68793;BME280;55778;54.346;10.210;2023-12-20T10:19:00;99936.91;;;5.03;100.00
68793;BME280;55778;54.346;10.210;2023-12-20T10:21:26;99932.63;;;5.01;100.00
68793;BME280;55778;54.346;10.210;2023-12-20T10:23:53;99919.84;;;5.74;100.00
68793;BME280;55778;54.346;10.210;2023-12-20T10:26:20;99933.88;;;5.38;100.00
68793;BME280;55778;54.346;10.210;2023-12-20T10:28:50;99939.56;;;4.94;100.00
68793;BME280;55778;54.346;10.210;2023-12-20T10:31:32;99934.06;;;4.84;100.00
68793;BME280;55778;54.346;10.210;2023-12-20T10:33:58;99933.81;;;4.56;100.00
68793;BME280;55778;54.346;10.210;2023-12-20T10:36:28;99934.25;;;4.40;100.00
68793;BME280;55778;54.346;10.210;2023-12-20T10:38:55;99940.63;;;4.39;100.00
68793;BME280;55778;54.346;10.210;2023-12-20T10:41:30;99942.78;;;4.56;100.00
68793;BME280;55778;54.346;10.210;2023-12-20T10:44:02;99924.19;;;4.74;100.00
68793;BME280;55778;54.346;10.210;2023-12-20T10:46:30;99925.16;;;4.73;100.00
68793;BME280;55778;54.346;10.210;2023-12-20T10:48:57;99914.38;;;4.93;100.00
68793;BME280;55778;54.346;10.210;2023-12-20T10:51:24;99919.56;;;4.85;100.00
68793;BME280;55778;54.346;10.210;2023-12-20T10:53:52;99913.53;;;4.93;100.00
68793;BME280;55778;54.346;10.210;2023-12-20T10:56:19;99916.59;;;4.88;100.00
68793;BME280;55778;54.346;10.210;2023-12-20T10:58:45;99920.91;;;4.91;100.00
68793;BME280;55778;54.346;10.210;2023-12-20T11:01:14;99911.50;;;5.06;100.00
68793;BME280;55778;54.346;10.210;2023-12-20T11:03:52;99911.03;;;4.80;100.00
68793;BME280;55778;54.346;10.210;2023-12-20T11:14:47;99898.69;;;6.28;100.00
68793;BME280;55778;54.346;10.210;2023-12-20T11:17:14;99899.97;;;6.34;100.00
68793;BME280;55778;54.346;10.210;2023-12-20T11:22:25;99878.88;;;6.18;100.00
68793;BME280;55778;54.346;10.210;2023-12-20T11:25:03;99880.44;;;5.41;100.00
68793;BME280;55778;54.346;10.210;2023-12-20T11:27:30;99894.44;;;5.05;100.00
68793;BME280;55778;54.346;10.210;2023-12-20T11:29:58;99878.56;;;4.91;100.00
68793;BME280;55778;54.346;10.210;2023-12-20T11:34:55;99891.59;;;5.07;100.00
68793;BME280;55778;54.346;10.210;2023-12-20T11:37:20;99899.38;;;5.00;100.00
68793;BME280;55778;54.346;10.210;2023-12-20T11:39:55;99906.81;;;4.87;100.00
68793;BME280;55778;54.346;10.210;2023-12-20T11:42:21;99889.97;;;4.95;100.00
68793;BME280;55778;54.346;10.210;2023-12-20T11:44:46;99893.66;;;4.94;100.00
68793;BME280;55778;54.346;10.210;2023-12-20T11:47:13;99893.66;;;6.04;100.00
68793;BME280;55778;54.346;10.210;2023-12-20T11:49:41;99880.88;;;6.83;100.00
68793;BME280;55778;54.346;10.210;2023-12-20T11:52:06;99879.50;;;6.60;100.00
68793;BME280;55778;54.346;10.210;2023-12-20T11:54:32;99874.28;;;7.23;100.00
68793;BME280;55778;54.346;10.210;2023-12-20T11:56:57;99876.03;;;7.05;100.00
68793;BME280;55778;54.346;10.210;2023-12-20T11:59:23;99878.09;;;7.30;100.00
68793;BME280;55778;54.346;10.210;2023-12-20T12:01:49;99866.44;;;7.30;100.00
68793;BME280;55778;54.346;10.210;2023-12-20T12:04:15;99869.75;;;7.60;100.00
68793;BME280;55778;54.346;10.210;2023-12-20T12:06:43;99858.34;;;7.84;100.00
68793;BME280;55778;54.346;10.210;2023-12-20T12:09:08;99861.53;;;7.43;100.00
68793;BME280;55778;54.346;10.210;2023-12-20T12:11:33;99868.66;;;6.50;100.00
68793;BME280;55778;54.346;10.210;2023-12-20T12:13:59;99867.97;;;5.89;100.00
68793;BME280;55778;54.346;10.210;2023-12-20T12:16:25;99879.75;;;6.28;100.00
68793;BME280;55778;54.346;10.210;2023-12-20T12:18:58;99870.22;;;6.43;100.00
68793;BME280;55778;54.346;10.210;2023-12-20T12:21:24;99879.88;;;7.03;100.00
68793;BME280;55778;54.346;10.210;2023-12-20T12:23:49;99890.59;;;6.85;100.00
68793;BME280;55778;54.346;10.210;2023-12-20T12:26:15;99901.69;;;6.35;100.00
68793;BME280;55778;54.346;10.210;2023-12-20T12:28:41;99891.41;;;5.49;100.00
68793;BME280;55778;54.346;10.210;2023-12-20T12:31:07;99934.66;;;4.67;100.00
68793;BME280;55778;54.346;10.210;2023-12-20T12:33:33;99911.34;;;4.35;100.00
68793;BME280;55778;54.346;10.210;2023-12-20T12:35:58;99900.50;;;4.03;100.00
68793;BME280;55778;54.346;10.210;2023-12-20T12:38:25;99895.38;;;4.00;100.00
68793;BME280;55778;54.346;10.210;2023-12-20T12:40:50;99889.56;;;4.15;100.00
68793;BME280;55778;54.346;10.210;2023-12-20T12:43:18;99897.44;;;4.07;100.00
68793;BME280;55778;54.346;10.210;2023-12-20T12:45:43;99906.00;;;4.12;100.00
68793;BME280;55778;54.346;10.210;2023-12-20T12:48:09;99890.41;;;5.20;100.00
68793;BME280;55778;54.346;10.210;2023-12-20T12:50:34;99896.91;;;5.68;100.00
68793;BME280;55778;54.346;10.210;2023-12-20T12:53:00;99893.22;;;6.09;100.00